createdAt,value
2023-05-12T00:00:55.671Z,6.55
2023-05-12T00:03:22.310Z,6.00
2023-05-12T00:05:48.883Z,5.45
2023-05-12T00:08:15.748Z,5.97
2023-05-12T00:10:42.279Z,6.28
2023-05-12T00:13:09.404Z,5.38
2023-05-12T00:15:37.121Z,5.53
2023-05-12T00:18:03.815Z,5.53
2023-05-12T00:20:30.327Z,4.65
2023-05-12T00:22:56.847Z,4.60
2023-05-12T00:25:23.331Z,4.38
2023-05-12T00:27:49.887Z,3.30
2023-05-12T00:30:16.558Z,3.58
2023-05-12T00:32:43.080Z,3.45
2023-05-12T00:35:10.306Z,3.10
2023-05-12T00:37:36.822Z,3.10
2023-05-12T00:40:03.672Z,3.10
2023-05-12T00:42:30.232Z,3.15
2023-05-12T00:44:56.884Z,3.20
2023-05-12T00:47:23.348Z,3.17
2023-05-12T00:49:49.888Z,3.10
2023-05-12T00:52:16.379Z,3.15
2023-05-12T00:54:44.048Z,3.17
2023-05-12T00:57:11.615Z,3.15
2023-05-12T00:59:38.054Z,3.00
2023-05-12T01:02:05.766Z,2.65
2023-05-12T01:04:32.959Z,2.40
2023-05-12T01:07:21.366Z,2.10
2023-05-12T01:09:48.356Z,2.30
2023-05-12T01:12:15.139Z,2.42
2023-05-12T01:14:42.368Z,2.30
2023-05-12T01:17:13.279Z,2.60
2023-05-12T01:19:49.680Z,3.00
2023-05-12T01:22:18.042Z,3.80
2023-05-12T01:24:54.848Z,2.92
2023-05-12T01:27:23.630Z,3.42
2023-05-12T01:29:51.254Z,4.32
2023-05-12T01:32:18.699Z,4.63
2023-05-12T01:34:45.566Z,4.63
2023-05-12T01:37:12.708Z,5.05
2023-05-12T01:39:39.258Z,5.15
2023-05-12T01:42:06.302Z,5.18
2023-05-12T01:44:32.914Z,5.85
2023-05-12T01:46:59.677Z,6.03
2023-05-12T01:49:26.247Z,6.00
2023-05-12T01:51:52.813Z,5.50
2023-05-12T01:54:19.429Z,5.63
2023-05-12T01:56:45.976Z,4.55
2023-05-12T01:59:12.553Z,4.40
2023-05-12T02:01:39.126Z,4.90
2023-05-12T02:04:08.811Z,4.82
2023-05-12T02:06:35.479Z,4.75
2023-05-12T02:09:02.061Z,5.57
2023-05-12T02:11:28.602Z,5.20
2023-05-12T02:13:55.171Z,6.20
2023-05-12T02:16:21.792Z,5.32
2023-05-12T02:18:48.452Z,5.57
2023-05-12T02:21:15.014Z,4.90
2023-05-12T02:23:41.553Z,6.22
2023-05-12T02:26:08.094Z,5.38
2023-05-12T02:28:34.581Z,4.85
2023-05-12T02:31:01.120Z,4.82
2023-05-12T02:33:27.672Z,4.60
2023-05-12T02:35:54.124Z,4.25
2023-05-12T02:38:20.637Z,3.80
2023-05-12T02:40:47.826Z,3.58
2023-05-12T02:43:14.363Z,3.63
2023-05-12T02:45:41.444Z,3.38
2023-05-12T02:48:08.058Z,3.50
2023-05-12T02:50:34.632Z,3.50
2023-05-12T02:53:01.221Z,2.95
2023-05-12T02:55:29.865Z,3.25
2023-05-12T02:57:56.841Z,2.80
2023-05-12T03:00:23.724Z,3.08
2023-05-12T03:02:51.117Z,2.25
2023-05-12T03:05:17.860Z,2.38
2023-05-12T03:07:44.525Z,2.47
2023-05-12T03:10:11.147Z,2.25
2023-05-12T03:12:37.738Z,1.95
2023-05-12T03:15:04.771Z,2.15
2023-05-12T03:17:31.470Z,1.92
2023-05-12T03:19:57.983Z,2.10
2023-05-12T03:22:24.540Z,2.30
2023-05-12T03:24:51.853Z,2.03
2023-05-12T03:27:18.714Z,1.80
2023-05-12T03:29:45.923Z,1.75
2023-05-12T03:32:12.665Z,2.22
2023-05-12T03:34:39.383Z,1.92
2023-05-12T03:37:06.076Z,1.73
2023-05-12T03:39:32.573Z,1.70
2023-05-12T03:41:59.062Z,1.63
2023-05-12T03:44:25.550Z,1.80
2023-05-12T03:46:52.168Z,1.70
2023-05-12T03:49:18.671Z,1.75
2023-05-12T03:51:45.139Z,2.00
2023-05-12T03:54:11.729Z,1.80
2023-05-12T03:56:38.414Z,2.22
2023-05-12T03:59:04.875Z,2.00
2023-05-12T04:01:31.790Z,2.20
2023-05-12T04:03:58.367Z,2.17
2023-05-12T04:06:24.852Z,2.20
2023-05-12T04:08:51.339Z,2.72
2023-05-12T04:11:17.798Z,2.80
2023-05-12T04:13:44.287Z,3.08
2023-05-12T04:16:10.848Z,2.83
2023-05-12T04:18:37.453Z,2.97
2023-05-12T04:21:04.080Z,3.33
2023-05-12T04:23:30.780Z,2.63
2023-05-12T04:25:57.269Z,2.78
2023-05-12T04:28:23.797Z,2.80
2023-05-12T04:30:50.487Z,2.83
2023-05-12T04:33:17.008Z,3.00
2023-05-12T04:35:43.450Z,2.67
2023-05-12T04:38:09.940Z,2.75
2023-05-12T04:40:36.542Z,2.80
2023-05-12T04:43:03.122Z,3.25
2023-05-12T04:45:29.569Z,2.65
2023-05-12T04:47:56.264Z,2.00
2023-05-12T04:50:22.795Z,2.10
2023-05-12T04:52:49.293Z,1.98
2023-05-12T04:55:15.788Z,1.77
2023-05-12T04:57:42.268Z,1.67
2023-05-12T05:00:09.414Z,2.00
2023-05-12T05:02:36.045Z,1.83
2023-05-12T05:05:02.763Z,2.00
2023-05-12T05:07:29.373Z,1.63
2023-05-12T05:09:55.882Z,1.83
2023-05-12T05:12:22.349Z,2.03
2023-05-12T05:14:48.928Z,1.23
2023-05-12T05:17:15.496Z,1.23
2023-05-12T05:19:54.758Z,1.23
2023-05-12T05:22:24.756Z,1.35
2023-05-12T05:24:51.872Z,1.35
2023-05-12T05:27:18.698Z,1.40
2023-05-12T05:29:45.337Z,1.40
2023-05-12T05:32:11.828Z,1.27
2023-05-12T05:34:38.383Z,1.35
2023-05-12T05:37:05.322Z,1.40
2023-05-12T05:39:32.257Z,1.20
2023-05-12T05:41:58.824Z,1.33
2023-05-12T05:44:25.482Z,1.23
2023-05-12T05:46:52.110Z,1.35
2023-05-12T05:49:19.740Z,1.40
2023-05-12T05:51:46.324Z,1.33
2023-05-12T05:54:12.822Z,1.30
2023-05-12T05:56:39.510Z,1.40
2023-05-12T05:59:06.281Z,1.33
2023-05-12T06:01:33.039Z,1.25
2023-05-12T06:03:59.912Z,1.30
2023-05-12T06:06:26.585Z,1.52
2023-05-12T06:08:55.947Z,1.50
2023-05-12T06:11:22.634Z,1.35
2023-05-12T06:13:49.141Z,1.40
2023-05-12T06:16:15.803Z,1.60
2023-05-12T06:18:42.461Z,1.50
2023-05-12T06:21:09.627Z,1.55
2023-05-12T06:23:36.183Z,1.63
2023-05-12T06:26:03.161Z,1.45
2023-05-12T06:28:29.777Z,1.70
2023-05-12T06:30:56.369Z,1.50
2023-05-12T06:33:23.406Z,1.55
2023-05-12T06:35:52.715Z,1.67
2023-05-12T06:38:19.194Z,1.70
2023-05-12T06:40:45.823Z,1.50
2023-05-12T06:43:13.111Z,1.70
2023-05-12T06:45:39.647Z,1.85
2023-05-12T06:48:06.375Z,2.00
2023-05-12T06:50:32.979Z,1.67
2023-05-12T06:52:59.502Z,1.77
2023-05-12T06:55:26.140Z,1.85
2023-05-12T06:57:55.783Z,1.73
2023-05-12T07:00:26.396Z,2.63
2023-05-12T07:02:53.247Z,1.80
2023-05-12T07:05:21.184Z,1.88
2023-05-12T07:07:47.970Z,1.70
2023-05-12T07:10:14.865Z,1.70
2023-05-12T07:12:41.536Z,1.83
2023-05-12T07:15:08.791Z,1.73
2023-05-12T07:17:35.448Z,1.50
2023-05-12T07:20:02.167Z,1.63
2023-05-12T07:22:29.606Z,1.60
2023-05-12T07:24:56.364Z,1.73
2023-05-12T07:27:22.890Z,1.50
2023-05-12T07:29:49.448Z,1.80
2023-05-12T07:32:16.146Z,1.50
2023-05-12T07:34:42.786Z,1.65
2023-05-12T07:37:09.371Z,1.60
2023-05-12T07:39:35.959Z,1.63
2023-05-12T07:42:02.620Z,1.80
2023-05-12T07:44:29.162Z,1.75
2023-05-12T07:46:55.805Z,1.73
2023-05-12T07:49:23.367Z,1.67
2023-05-12T07:51:50.196Z,1.92
2023-05-12T07:54:16.758Z,1.60
2023-05-12T07:56:43.267Z,1.60
2023-05-12T07:59:11.091Z,2.13
2023-05-12T08:01:37.632Z,1.60
2023-05-12T08:04:04.421Z,1.63
2023-05-12T08:06:31.153Z,1.60
2023-05-12T08:08:58.464Z,1.55
2023-05-12T08:11:26.474Z,1.85
2023-05-12T08:13:53.452Z,2.10
2023-05-12T08:16:20.275Z,2.15
2023-05-12T08:18:46.901Z,1.60
2023-05-12T08:21:13.405Z,1.55
2023-05-12T08:23:39.861Z,1.50
2023-05-12T08:26:06.462Z,1.52
2023-05-12T08:28:33.177Z,1.42
2023-05-12T08:31:01.002Z,1.40
2023-05-12T08:33:29.288Z,1.55
2023-05-12T08:35:55.808Z,1.60
2023-05-12T08:38:22.459Z,1.50
2023-05-12T08:41:18.376Z,1.67
2023-05-12T08:43:48.783Z,1.80
2023-05-12T08:46:16.093Z,1.60
2023-05-12T08:48:45.616Z,1.42
2023-05-12T08:51:13.827Z,1.67
2023-05-12T08:53:42.121Z,1.50
2023-05-12T08:58:57.547Z,1.27
2023-05-12T09:01:25.939Z,1.58
2023-05-12T09:03:53.299Z,1.38
2023-05-12T09:06:20.065Z,1.33
2023-05-12T09:08:47.003Z,1.20
2023-05-12T09:11:14.417Z,1.50
2023-05-12T09:14:10.682Z,1.25
2023-05-12T09:16:44.156Z,1.50
2023-05-12T09:19:11.177Z,1.30
2023-05-12T09:21:37.914Z,1.60
2023-05-12T09:24:07.087Z,1.42
2023-05-12T09:26:47.756Z,1.70
2023-05-12T09:29:24.010Z,1.40
2023-05-12T09:32:00.408Z,1.50
2023-05-12T09:34:40.807Z,1.50
2023-05-12T09:37:08.162Z,1.65
2023-05-12T09:39:35.080Z,1.45
2023-05-12T09:42:01.844Z,1.40
2023-05-12T09:44:31.380Z,1.50
2023-05-12T09:47:06.563Z,1.55
2023-05-12T09:49:33.451Z,1.50
2023-05-12T09:52:00.083Z,1.48
2023-05-12T09:54:27.650Z,1.80
2023-05-12T09:56:58.348Z,1.40
2023-05-12T09:59:28.952Z,1.63
2023-05-12T10:02:01.748Z,1.10
2023-05-12T10:04:54.576Z,1.60
2023-05-12T10:07:24.525Z,2.20
2023-05-12T10:09:51.236Z,1.40
2023-05-12T10:12:17.777Z,1.40
2023-05-12T10:14:44.735Z,1.20
2023-05-12T10:17:12.551Z,1.60
2023-05-12T10:19:41.073Z,1.60
2023-05-12T10:24:37.873Z,1.40
2023-05-12T10:27:06.146Z,1.50
2023-05-12T10:29:33.819Z,1.63
2023-05-12T10:32:03.862Z,1.63
2023-05-12T10:34:37.290Z,1.55
2023-05-12T10:37:10.801Z,1.55
2023-05-12T10:39:46.341Z,1.50
2023-05-12T10:42:16.990Z,1.50
2023-05-12T10:44:54.104Z,1.60
2023-05-12T10:47:26.921Z,1.52
2023-05-12T10:49:59.825Z,1.77
2023-05-12T10:52:26.499Z,1.55
2023-05-12T10:55:00.767Z,1.40
2023-05-12T10:57:28.883Z,1.40
2023-05-12T11:00:01.900Z,1.50
2023-05-12T11:02:32.890Z,1.55
2023-05-12T11:05:10.773Z,1.58
2023-05-12T11:07:37.983Z,1.50
2023-05-12T11:10:06.100Z,1.42
2023-05-12T11:12:37.293Z,1.60
2023-05-12T11:15:05.666Z,1.77
2023-05-12T11:17:32.741Z,1.42
2023-05-12T11:20:01.026Z,1.60
2023-05-12T11:22:28.129Z,1.70
2023-05-12T11:24:54.957Z,1.23
2023-05-12T11:27:23.045Z,1.60
2023-05-12T11:30:02.007Z,1.52
2023-05-12T11:32:29.561Z,1.60
2023-05-12T11:34:56.612Z,1.60
2023-05-12T11:37:23.370Z,1.42
2023-05-12T11:39:50.144Z,1.70
2023-05-12T11:42:19.799Z,1.77
2023-05-12T11:44:49.491Z,1.90
2023-05-12T11:47:17.460Z,1.50
2023-05-12T11:49:48.072Z,1.50
2023-05-12T11:52:15.454Z,1.50
2023-05-12T11:54:53.317Z,1.70
2023-05-12T11:57:27.521Z,1.60
2023-05-12T12:00:09.997Z,1.65
2023-05-12T12:02:43.278Z,1.80
2023-05-12T12:05:19.705Z,1.80
2023-05-12T12:07:46.478Z,1.70
2023-05-12T12:10:17.662Z,1.60
2023-05-12T12:12:45.710Z,1.98
2023-05-12T12:15:13.138Z,1.77
2023-05-12T12:17:40.894Z,2.22
2023-05-12T12:20:09.103Z,1.70
2023-05-12T12:25:03.448Z,1.60
2023-05-12T12:27:30.135Z,1.65
2023-05-12T12:29:56.635Z,1.50
2023-05-12T12:32:23.160Z,1.70
2023-05-12T12:34:49.712Z,1.70
2023-05-12T12:37:17.099Z,1.80
2023-05-12T12:39:43.728Z,1.88
2023-05-12T12:42:10.237Z,2.85
2023-05-12T12:44:36.790Z,2.25
2023-05-12T12:47:03.643Z,1.83
2023-05-12T12:49:30.172Z,1.90
2023-05-12T12:51:56.747Z,2.25
2023-05-12T12:54:26.887Z,2.45
2023-05-12T12:56:53.367Z,2.30
2023-05-12T12:59:19.836Z,2.13
2023-05-12T13:01:46.433Z,2.10
2023-05-12T13:04:12.958Z,2.17
2023-05-12T13:06:39.910Z,2.40
2023-05-12T13:09:06.535Z,2.00
2023-05-12T13:11:33.097Z,2.00
2023-05-12T13:13:59.630Z,2.20
2023-05-12T13:16:26.111Z,2.40
2023-05-12T13:18:52.823Z,2.80
2023-05-12T13:21:19.523Z,2.60
2023-05-12T13:23:45.975Z,2.15
2023-05-12T13:26:12.433Z,2.42
2023-05-12T13:28:38.970Z,2.10
2023-05-12T13:31:06.171Z,2.13
2023-05-12T13:33:32.839Z,2.63
2023-05-12T13:35:59.462Z,2.20
2023-05-12T13:38:26.414Z,2.13
2023-05-12T13:40:53.052Z,2.13
2023-05-12T13:43:19.579Z,2.03
2023-05-12T13:45:46.145Z,2.05
2023-05-12T13:48:12.720Z,2.00
2023-05-12T13:50:39.391Z,2.00
2023-05-12T13:53:06.587Z,2.00
2023-05-12T13:55:34.301Z,2.25
2023-05-12T13:58:00.930Z,2.10
2023-05-12T14:00:29.726Z,2.20
2023-05-12T14:02:57.721Z,1.92
2023-05-12T14:05:24.729Z,2.13
2023-05-12T14:07:51.439Z,2.55
2023-05-12T14:10:18.614Z,2.40
2023-05-12T14:12:45.461Z,2.20
2023-05-12T14:17:46.317Z,2.33
2023-05-12T14:20:12.973Z,2.10
2023-05-12T14:22:39.495Z,2.33
2023-05-12T14:25:06.318Z,2.53
2023-05-12T14:27:32.832Z,1.98
2023-05-12T14:29:59.376Z,2.47
2023-05-12T14:32:26.025Z,2.10
2023-05-12T14:34:52.563Z,2.10
2023-05-12T14:37:19.058Z,2.00
2023-05-12T14:39:45.580Z,2.08
2023-05-12T14:42:12.383Z,2.20
2023-05-12T14:44:39.081Z,2.15
2023-05-12T14:47:08.257Z,2.58
2023-05-12T14:49:35.679Z,2.30
2023-05-12T14:52:02.670Z,2.40
2023-05-12T14:54:29.252Z,2.28
2023-05-12T14:56:56.596Z,2.15
2023-05-12T14:59:23.237Z,1.77
2023-05-12T15:01:50.059Z,1.70
2023-05-12T15:04:16.797Z,1.60
2023-05-12T15:06:43.284Z,1.60
2023-05-12T15:09:09.821Z,1.80
2023-05-12T15:11:36.986Z,1.70
2023-05-12T15:14:04.807Z,1.65
2023-05-12T15:16:32.976Z,1.92
2023-05-12T15:18:59.803Z,1.73
2023-05-12T15:21:26.427Z,1.90
2023-05-12T15:23:52.903Z,1.75
2023-05-12T15:26:31.950Z,1.58
2023-05-12T15:29:00.621Z,1.65
2023-05-12T15:31:29.478Z,1.65
2023-05-12T15:33:59.163Z,1.67
2023-05-12T15:36:25.768Z,1.80
2023-05-12T15:38:52.303Z,1.83
2023-05-12T15:41:18.852Z,1.80
2023-05-12T15:43:45.358Z,1.70
2023-05-12T15:46:12.012Z,1.58
2023-05-12T15:48:39.533Z,1.63
2023-05-12T15:51:06.815Z,1.90
2023-05-12T15:53:33.492Z,1.80
2023-05-12T15:56:03.916Z,1.60
2023-05-12T15:58:31.216Z,1.38
2023-05-12T16:00:57.793Z,1.63
2023-05-12T16:03:24.637Z,1.60
2023-05-12T16:05:51.453Z,1.65
2023-05-12T16:08:18.508Z,1.60
2023-05-12T16:10:45.132Z,1.67
2023-05-12T16:13:11.629Z,1.75
2023-05-12T16:15:38.179Z,1.70
2023-05-12T16:18:05.931Z,1.80
2023-05-12T16:20:34.200Z,1.70
2023-05-12T16:23:00.695Z,1.58
2023-05-12T16:25:27.254Z,3.83
2023-05-12T16:27:53.767Z,3.55
2023-05-12T16:30:20.601Z,5.53
2023-05-12T16:32:47.381Z,2.80
2023-05-12T16:35:14.154Z,2.45
2023-05-12T16:37:41.307Z,1.98
2023-05-12T16:40:08.476Z,2.47
2023-05-12T16:42:34.938Z,1.98
2023-05-12T16:45:01.520Z,2.10
2023-05-12T16:47:29.584Z,2.28
2023-05-12T16:49:58.060Z,2.30
2023-05-12T16:52:25.444Z,2.42
2023-05-12T16:54:52.375Z,2.50
2023-05-12T16:57:19.135Z,2.50
2023-05-12T16:59:45.869Z,2.45
2023-05-12T17:02:12.446Z,2.53
2023-05-12T17:04:39.532Z,2.90
2023-05-12T17:07:06.082Z,2.88
2023-05-12T17:09:32.552Z,3.10
2023-05-12T17:11:59.110Z,3.75
2023-05-12T17:14:25.723Z,3.22
2023-05-12T17:16:52.392Z,4.18
2023-05-12T17:19:18.958Z,3.78
2023-05-12T17:21:45.476Z,4.18
2023-05-12T17:24:11.974Z,3.40
2023-05-12T17:26:38.457Z,3.58
2023-05-12T17:29:04.950Z,3.72
2023-05-12T17:31:31.592Z,3.50
2023-05-12T17:33:58.116Z,3.08
2023-05-12T17:36:24.861Z,3.45
2023-05-12T17:38:52.475Z,3.10
2023-05-12T17:41:19.374Z,3.47
2023-05-12T17:43:46.073Z,3.22
2023-05-12T17:46:12.554Z,3.47
2023-05-12T17:48:39.215Z,3.30
2023-05-12T17:51:06.408Z,3.42
2023-05-12T17:53:33.401Z,3.40
2023-05-12T17:56:00.440Z,3.50
2023-05-12T17:58:27.052Z,3.20
2023-05-12T18:00:53.921Z,3.60
2023-05-12T18:03:23.763Z,3.63
2023-05-12T18:05:52.076Z,3.60
2023-05-12T18:08:19.052Z,3.42
2023-05-12T18:10:46.735Z,3.78
2023-05-12T18:13:14.630Z,3.63
2023-05-12T18:15:41.850Z,3.97
2023-05-12T18:18:10.131Z,3.78
2023-05-12T18:20:37.507Z,4.70
2023-05-12T18:23:03.984Z,4.57
2023-05-12T18:25:30.666Z,4.32
2023-05-12T18:27:57.159Z,4.40
2023-05-12T18:30:23.932Z,4.47
2023-05-12T18:32:51.029Z,4.22
2023-05-12T18:35:18.042Z,4.47
2023-05-12T18:37:44.951Z,4.95
2023-05-12T18:40:12.126Z,4.40
2023-05-12T18:42:38.740Z,4.45
2023-05-12T18:45:05.903Z,4.18
2023-05-12T18:47:33.446Z,4.47
2023-05-12T18:50:00.276Z,5.28
2023-05-12T18:52:26.885Z,4.32
2023-05-12T18:54:53.379Z,4.10
2023-05-12T18:57:19.997Z,3.53
2023-05-12T18:59:46.484Z,3.50
2023-05-12T19:02:13.107Z,3.33
2023-05-12T19:04:39.641Z,3.63
2023-05-12T19:07:09.708Z,3.13
2023-05-12T19:09:37.075Z,3.65
2023-05-12T19:12:05.977Z,3.47
2023-05-12T19:14:32.840Z,3.47
2023-05-12T19:16:59.409Z,3.67
2023-05-12T19:19:26.040Z,3.70
2023-05-12T19:21:52.595Z,4.05
2023-05-12T19:24:19.432Z,3.47
2023-05-12T19:26:46.026Z,3.42
2023-05-12T19:29:12.560Z,3.45
2023-05-12T19:31:39.099Z,3.60
2023-05-12T19:34:05.694Z,3.83
2023-05-12T19:36:32.277Z,3.33
2023-05-12T19:39:01.303Z,3.67
2023-05-12T19:41:28.960Z,3.45
2023-05-12T19:43:56.291Z,3.38
2023-05-12T19:46:22.957Z,3.85
2023-05-12T19:48:52.028Z,3.95
2023-05-12T19:51:18.630Z,4.00
2023-05-12T19:53:45.096Z,3.42
2023-05-12T19:56:11.661Z,3.80
2023-05-12T19:58:38.414Z,4.30
2023-05-12T20:01:05.066Z,3.78
2023-05-12T20:03:31.792Z,4.60
2023-05-12T20:05:58.918Z,4.30
2023-05-12T20:08:25.488Z,3.53
2023-05-12T20:10:52.160Z,4.10
2023-05-12T20:13:18.717Z,4.38
2023-05-12T20:15:45.293Z,4.40
2023-05-12T20:18:14.611Z,3.80
2023-05-12T20:20:42.336Z,4.30
2023-05-12T20:23:09.016Z,4.03
2023-05-12T20:25:36.182Z,4.35
2023-05-12T20:28:03.233Z,4.45
2023-05-12T20:30:29.977Z,4.03
2023-05-12T20:32:56.692Z,4.00
2023-05-12T20:35:23.860Z,4.53
2023-05-12T20:37:50.591Z,3.95
2023-05-12T20:40:17.116Z,4.07
2023-05-12T20:42:45.866Z,4.38
2023-05-12T20:45:13.558Z,4.40
2023-05-12T20:47:40.324Z,4.28
2023-05-12T20:50:08.287Z,4.70
2023-05-12T20:52:39.458Z,4.03
2023-05-12T20:55:06.994Z,4.88
2023-05-12T20:57:33.740Z,4.75
2023-05-12T21:00:00.555Z,4.25
2023-05-12T21:02:29.011Z,4.10
2023-05-12T21:07:22.398Z,4.13
2023-05-12T21:09:49.101Z,4.18
2023-05-12T21:12:15.856Z,4.40
2023-05-12T21:14:44.306Z,4.70
2023-05-12T21:17:12.100Z,3.92
2023-05-12T21:19:40.006Z,4.28
2023-05-12T21:22:07.978Z,3.90
2023-05-12T21:24:36.358Z,4.75
2023-05-12T21:27:04.358Z,5.13
2023-05-12T21:29:32.112Z,4.25
2023-05-12T21:31:58.735Z,4.50
2023-05-12T21:34:25.442Z,4.88
2023-05-12T21:36:52.203Z,4.88
2023-05-12T21:39:18.705Z,4.30
2023-05-12T21:41:45.274Z,5.45
2023-05-12T21:44:12.091Z,4.82
2023-05-12T21:46:38.774Z,4.80
2023-05-12T21:49:05.397Z,4.88
2023-05-12T21:51:33.177Z,5.18
2023-05-12T21:54:00.221Z,4.28
2023-05-12T21:56:26.912Z,5.05
2023-05-12T21:58:53.481Z,5.90
2023-05-12T22:01:20.430Z,4.40
2023-05-12T22:03:47.134Z,5.00
2023-05-12T22:06:13.718Z,5.10
2023-05-12T22:08:40.212Z,4.70
2023-05-12T22:11:06.766Z,4.70
2023-05-12T22:13:33.337Z,5.20
2023-05-12T22:16:00.137Z,5.20
2023-05-12T22:18:26.785Z,6.90
2023-05-12T22:20:53.360Z,5.43
2023-05-12T22:23:19.886Z,5.85
2023-05-12T22:25:46.512Z,5.78
2023-05-12T22:28:13.293Z,5.68
2023-05-12T22:30:41.544Z,6.03
2023-05-12T22:33:08.136Z,5.57
2023-05-12T22:35:34.639Z,5.47
2023-05-12T22:38:01.192Z,5.70
2023-05-12T22:40:27.844Z,5.30
2023-05-12T22:42:54.341Z,5.80
2023-05-12T22:45:21.008Z,5.00
2023-05-12T22:47:47.525Z,5.60
2023-05-12T22:50:14.102Z,5.85
2023-05-12T22:52:40.614Z,5.50
2023-05-12T22:55:07.346Z,5.93
2023-05-12T22:57:33.864Z,5.57
2023-05-12T23:00:00.354Z,4.88
2023-05-12T23:02:26.929Z,5.53
2023-05-12T23:04:53.517Z,5.78
2023-05-12T23:07:19.988Z,5.90
2023-05-12T23:09:46.604Z,5.47
2023-05-12T23:12:13.085Z,6.25
2023-05-12T23:14:39.574Z,5.50
2023-05-12T23:17:06.134Z,5.32
2023-05-12T23:19:32.655Z,5.35
2023-05-12T23:21:59.114Z,5.72
2023-05-12T23:24:25.686Z,5.68
2023-05-12T23:26:52.518Z,5.90
2023-05-12T23:29:19.021Z,6.10
2023-05-12T23:31:45.572Z,6.05
2023-05-12T23:34:12.444Z,7.20
2023-05-12T23:36:38.970Z,6.30
2023-05-12T23:39:05.668Z,6.15
2023-05-12T23:41:33.911Z,6.43
2023-05-12T23:44:00.467Z,6.20
2023-05-12T23:46:26.987Z,6.68
2023-05-12T23:48:56.124Z,6.63
2023-05-12T23:51:23.620Z,6.50
2023-05-12T23:53:50.189Z,5.85
2023-05-12T23:56:16.677Z,6.13
2023-05-12T23:58:43.251Z,6.65
